Time;durP1;ratioP1;P1;durP2;ratioP2;P2;SDS_P1;SDS_P2;PMS_P1;PMS_P2;Temp;Humidity;BMP_temperature;BMP_pressure;BME280_temperature;BME280_humidity;BME280_pressure;Samples;Min_cycle;Max_cycle;Signal;HPM_P1;HPM_P2
2023/05/22 00:02:51;;;;;;;35.40;15.40;;;;;13.00;101128.00;;;;10086069;28;20237;-75
2023/05/22 00:07:52;;;;;;;32.77;17.00;;;;;12.90;101120.00;;;;10084133;28;20268;-75
2023/05/22 00:12:54;;;;;;;28.87;17.13;;;;;12.90;101112.00;;;;10053166;29;20217;-75
2023/05/22 00:17:55;;;;;;;34.67;18.53;;;;;12.90;101103.00;;;;10103925;28;20213;-75
2023/05/22 00:23:00;;;;;;;37.10;20.40;;;;;12.90;101104.00;;;;10084311;28;20676;-75
2023/05/22 00:28:01;;;;;;;38.17;21.10;;;;;13.00;101093.00;;;;10086034;28;20673;-75
2023/05/22 00:33:02;;;;;;;42.33;24.63;;;;;12.90;101099.00;;;;10085485;29;20202;-75
2023/05/22 00:38:05;;;;;;;45.17;23.83;;;;;13.00;101095.00;;;;10098634;28;20832;-75
2023/05/22 00:43:08;;;;;;;42.20;24.60;;;;;12.90;101101.00;;;;10083474;29;20218;-76
2023/05/22 00:48:11;;;;;;;39.30;24.40;;;;;13.00;101101.00;;;;10101862;29;20656;-75
2023/05/22 00:53:13;;;;;;;40.57;24.67;;;;;13.00;101096.00;;;;10100296;28;20237;-76
2023/05/22 00:58:18;;;;;;;45.07;25.33;;;;;13.00;101093.00;;;;10098057;28;20276;-76
2023/05/22 01:03:24;;;;;;;48.77;27.53;;;;;13.00;101086.00;;;;10103682;28;20238;-75
2023/05/22 01:08:26;;;;;;;48.37;28.13;;;;;13.00;101076.00;;;;10076940;29;20218;-75
2023/05/22 01:13:38;;;;;;;46.30;27.83;;;;;12.90;101082.00;;;;10111685;28;20221;-73
2023/05/22 01:18:54;;;;;;;49.00;27.77;;;;;12.90;101074.00;;;;10094044;28;20214;-74
2023/05/22 01:24:05;;;;;;;44.23;27.53;;;;;12.90;101079.00;;;;10093585;28;20229;-75
2023/05/22 01:29:13;;;;;;;48.70;27.57;;;;;12.90;101072.00;;;;10107522;29;20670;-74
2023/05/22 01:34:16;;;;;;;49.90;28.97;;;;;12.80;101059.00;;;;10110626;29;20214;-75
2023/05/22 01:39:18;;;;;;;52.90;30.40;;;;;12.80;101061.00;;;;10107772;28;20214;-75
2023/05/22 01:44:19;;;;;;;62.17;33.00;;;;;12.80;101044.00;;;;10092267;28;20284;-74
2023/05/22 01:49:21;;;;;;;54.33;31.37;;;;;12.70;101048.00;;;;10111315;28;21089;-75
2023/05/22 01:54:44;;;;;;;62.37;33.63;;;;;12.70;101044.00;;;;10099603;29;20214;-74
2023/05/22 01:59:55;;;;;;;64.27;32.53;;;;;12.70;101047.00;;;;10098636;29;20222;-75
2023/05/22 02:04:59;;;;;;;58.47;32.57;;;;;12.70;101045.00;;;;10098735;28;20215;-75
2023/05/22 02:10:02;;;;;;;58.30;31.33;;;;;12.70;101036.00;;;;10117816;28;20342;-75
2023/05/22 02:15:05;;;;;;;75.60;33.27;;;;;12.80;101044.00;;;;10099373;29;20268;-75
2023/05/22 02:20:14;;;;;;;67.83;33.37;;;;;12.90;101039.00;;;;10084710;29;20455;-74
2023/05/22 02:25:17;;;;;;;60.03;33.07;;;;;12.90;101024.00;;;;10100419;29;20265;-74
2023/05/22 02:30:20;;;;;;;62.43;32.77;;;;;12.90;101033.00;;;;10099692;28;20214;-74
2023/05/22 02:35:24;;;;;;;65.13;33.90;;;;;12.80;101037.00;;;;10099770;29;20214;-74
2023/05/22 02:40:26;;;;;;;67.70;34.00;;;;;12.70;101038.00;;;;10084298;28;20230;-75
2023/05/22 02:45:28;;;;;;;62.80;34.33;;;;;12.80;101025.00;;;;10117125;29;20218;-76
2023/05/22 02:50:29;;;;;;;67.37;34.00;;;;;12.80;101013.00;;;;10100753;29;20289;-74
2023/05/22 02:55:31;;;;;;;66.63;33.07;;;;;12.80;101010.00;;;;10115581;29;21134;-74
2023/05/22 03:00:32;;;;;;;62.00;35.90;;;;;12.80;101003.00;;;;10100007;28;20340;-75
2023/05/22 03:05:34;;;;;;;62.57;33.37;;;;;12.70;101000.00;;;;10083256;29;20324;-75
2023/05/22 03:10:35;;;;;;;69.77;35.77;;;;;12.70;101008.00;;;;10096701;29;20249;-75
2023/05/22 03:15:36;;;;;;;72.13;33.07;;;;;12.60;101009.00;;;;10097883;28;20210;-75
2023/05/22 03:20:46;;;;;;;70.33;34.20;;;;;12.60;101011.00;;;;10098587;28;20352;-75
2023/05/22 03:25:47;;;;;;;69.43;35.53;;;;;12.60;101003.00;;;;10098672;28;20214;-75
2023/05/22 03:30:49;;;;;;;73.97;35.70;;;;;12.60;101008.00;;;;10096450;29;20890;-74
2023/05/22 03:36:02;;;;;;;68.33;35.73;;;;;12.50;101010.00;;;;10095432;28;20202;-74
2023/05/22 03:41:03;;;;;;;74.80;36.47;;;;;12.60;101014.00;;;;10113959;29;20264;-74
2023/05/22 03:46:04;;;;;;;72.30;37.13;;;;;12.60;101012.00;;;;10099505;28;20241;-75
2023/05/22 03:51:06;;;;;;;66.30;33.90;;;;;12.60;101019.00;;;;10098124;28;20651;-74
2023/05/22 03:56:07;;;;;;;73.37;38.13;;;;;12.60;101010.00;;;;10095446;29;20210;-74
2023/05/22 04:01:10;;;;;;;75.03;38.77;;;;;12.60;101004.00;;;;10112579;28;20234;-73
2023/05/22 04:06:12;;;;;;;85.43;40.90;;;;;12.70;101004.00;;;;10097908;28;20210;-74
2023/05/22 04:11:14;;;;;;;86.10;40.20;;;;;12.80;101005.00;;;;10095051;29;20992;-75
2023/05/22 04:16:16;;;;;;;70.37;39.00;;;;;12.90;101000.00;;;;10114025;28;20223;-75
2023/05/22 04:21:18;;;;;;;74.70;38.13;;;;;12.80;101012.00;;;;10111732;28;20328;-75
2023/05/22 04:26:19;;;;;;;69.10;36.70;;;;;12.80;101008.00;;;;10110745;28;20210;-75
2023/05/22 04:31:21;;;;;;;73.20;36.13;;;;;12.80;101016.00;;;;10094742;29;20221;-74
2023/05/22 04:36:25;;;;;;;68.47;37.53;;;;;12.90;101011.00;;;;10080509;29;21196;-75
2023/05/22 04:41:27;;;;;;;65.27;37.40;;;;;12.90;101022.00;;;;10094609;29;20368;-74
2023/05/22 04:46:29;;;;;;;74.37;40.30;;;;;13.00;101020.00;;;;10094874;28;20265;-74
2023/05/22 04:51:31;;;;;;;65.97;36.97;;;;;13.00;101023.00;;;;10093492;29;20246;-74
2023/05/22 04:56:33;;;;;;;72.90;39.07;;;;;13.00;101015.00;;;;10095177;28;20297;-75
2023/05/22 05:01:38;;;;;;;72.23;38.90;;;;;13.00;101016.00;;;;10095332;29;20257;-75
2023/05/22 05:06:40;;;;;;;74.10;39.90;;;;;13.00;101030.00;;;;10096989;29;20296;-74
2023/05/22 05:11:41;;;;;;;73.23;40.27;;;;;13.10;101028.00;;;;10077736;28;20273;-73
2023/05/22 05:16:43;;;;;;;83.20;41.43;;;;;13.20;101022.00;;;;10112418;29;20232;-76
2023/05/22 05:21:44;;;;;;;85.17;43.00;;;;;13.30;101025.00;;;;10093755;29;20230;-75
2023/05/22 05:26:46;;;;;;;87.93;42.30;;;;;13.40;101023.00;;;;10115934;28;20213;-76
2023/05/22 05:43:10;;;;;;;89.20;40.03;;;;;13.60;101026.00;;;;11102656;23;20257;-76
2023/05/22 05:48:13;;;;;;;85.13;40.30;;;;;13.60;101034.00;;;;10091338;28;20218;-77
2023/05/22 05:53:18;;;;;;;91.23;43.60;;;;;13.70;101041.00;;;;10091239;28;20214;-76
2023/05/22 05:58:24;;;;;;;86.70;41.57;;;;;13.70;101038.00;;;;10079603;28;20245;-76
2023/05/22 06:32:19;;;;;;;94.90;43.33;;;;;14.50;101062.00;;;;11381494;23;20262;-78
2023/05/22 06:37:21;;;;;;;86.87;42.17;;;;;14.70;101063.00;;;;10047792;29;20211;-79
2023/05/22 06:42:23;;;;;;;84.10;41.73;;;;;14.50;101071.00;;;;10058514;29;20297;-76
2023/05/22 06:47:43;;;;;;;84.40;41.70;;;;;14.40;101075.00;;;;10062133;29;20234;-76
2023/05/22 06:52:45;;;;;;;91.30;41.80;;;;;14.50;101073.00;;;;10033427;29;20251;-76
2023/05/22 06:57:47;;;;;;;87.03;44.10;;;;;14.60;101084.00;;;;10021889;29;20489;-77
2023/05/22 07:02:49;;;;;;;95.43;44.70;;;;;14.70;101084.00;;;;10007249;29;20294;-76
2023/05/22 07:08:00;;;;;;;93.87;47.17;;;;;14.70;101084.00;;;;10021845;29;20370;-76
2023/05/22 07:13:02;;;;;;;120.07;49.47;;;;;14.80;101085.00;;;;10025270;29;20598;-77
2023/05/22 07:18:08;;;;;;;120.63;50.77;;;;;15.00;101088.00;;;;10002724;29;21037;-76
2023/05/22 07:23:09;;;;;;;120.73;54.20;;;;;15.20;101094.00;;;;10016499;29;20491;-76
2023/05/22 07:28:12;;;;;;;101.50;49.50;;;;;15.40;101095.00;;;;10019932;29;20223;-76
2023/05/22 07:33:29;;;;;;;105.43;50.37;;;;;15.40;101102.00;;;;10035564;29;20221;-75
2023/05/22 07:38:31;;;;;;;120.73;55.30;;;;;15.60;101115.00;;;;10021371;29;20199;-76
2023/05/22 07:43:36;;;;;;;149.30;63.35;;;;;16.10;101102.00;;;;10017176;29;20287;-76
2023/05/22 07:48:38;;;;;;;135.55;60.45;;;;;16.70;101103.00;;;;10035421;29;20239;-76
2023/05/22 07:53:40;;;;;;;141.65;65.07;;;;;17.20;101089.00;;;;10017033;29;20294;-76
2023/05/22 07:58:42;;;;;;;131.10;62.08;;;;;17.60;101088.00;;;;10015861;29;20932;-77
2023/05/22 08:03:44;;;;;;;135.57;63.45;;;;;17.60;101092.00;;;;10035375;29;20352;-76
2023/05/22 08:08:45;;;;;;;131.05;62.75;;;;;17.50;101099.00;;;;10018262;29;20326;-77
2023/05/22 08:13:47;;;;;;;120.63;59.88;;;;;17.50;101092.00;;;;10016925;29;20211;-77
2023/05/22 08:18:49;;;;;;;138.18;64.75;;;;;17.70;101086.00;;;;10014293;29;20215;-76
2023/05/22 08:23:50;;;;;;;121.13;57.70;;;;;18.60;101087.00;;;;10028650;29;20243;-76
2023/05/22 08:28:52;;;;;;;115.57;57.40;;;;;18.60;101090.00;;;;10014183;29;20789;-76
2023/05/22 08:34:01;;;;;;;127.90;62.38;;;;;18.20;101104.00;;;;9981486;29;20689;-76
2023/05/22 08:39:02;;;;;;;127.57;63.50;;;;;17.70;101113.00;;;;10029330;29;21789;-76
2023/05/22 08:44:04;;;;;;;127.30;59.92;;;;;17.40;101118.00;;;;10000010;29;20231;-76
2023/05/22 08:49:07;;;;;;;127.78;62.95;;;;;17.00;101122.00;;;;10033836;29;20212;-76
2023/05/22 08:54:09;;;;;;;119.25;58.00;;;;;17.20;101118.00;;;;10035300;29;20234;-76
2023/05/22 08:59:11;;;;;;;130.52;66.43;;;;;17.40;101132.00;;;;10034206;29;20514;-76
2023/05/22 09:04:13;;;;;;;132.15;66.80;;;;;17.50;101134.00;;;;10017155;29;20223;-76
2023/05/22 09:09:14;;;;;;;147.18;72.15;;;;;17.30;101128.00;;;;10016350;29;20211;-77
2023/05/22 09:14:17;;;;;;;146.40;72.25;;;;;17.20;101138.00;;;;10017909;29;20330;-76
2023/05/22 09:19:19;;;;;;;133.73;69.40;;;;;17.40;101141.00;;;;10032981;29;20214;-75
2023/05/22 09:24:20;;;;;;;147.88;75.40;;;;;17.60;101142.00;;;;10034712;29;20227;-76
2023/05/22 09:29:22;;;;;;;117.88;67.68;;;;;17.70;101145.00;;;;10034760;29;20219;-77
2023/05/22 09:34:27;;;;;;;119.47;60.95;;;;;17.60;101141.00;;;;10016144;29;20215;-76
2023/05/22 09:39:40;;;;;;;116.15;60.83;;;;;17.60;101145.00;;;;10014889;29;20563;-76
2023/05/22 09:44:49;;;;;;;118.95;65.45;;;;;17.90;101146.00;;;;10031790;29;20770;-76
2023/05/22 09:49:57;;;;;;;114.55;62.97;;;;;18.10;101138.00;;;;10030242;29;20208;-76
2023/05/22 09:55:05;;;;;;;97.45;56.22;;;;;18.30;101128.00;;;;10030156;29;20326;-76
2023/05/22 10:00:11;;;;;;;96.13;53.90;;;;;18.80;101125.00;;;;10028681;29;20219;-77
2023/05/22 10:05:20;;;;;;;80.50;51.78;;;;;19.00;101132.00;;;;10030685;29;20212;-76
2023/05/22 10:10:24;;;;;;;72.40;43.53;;;;;19.10;101127.00;;;;10017934;29;20330;-76
2023/05/22 10:15:26;;;;;;;94.00;53.95;;;;;18.90;101124.00;;;;10038434;29;20212;-77
2023/05/22 10:20:28;;;;;;;105.78;58.90;;;;;18.80;101131.00;;;;10020080;29;20242;-76
2023/05/22 10:25:29;;;;;;;98.60;56.28;;;;;18.70;101123.00;;;;10038541;29;20215;-76
2023/05/22 10:30:50;;;;;;;81.53;48.33;;;;;18.60;101115.00;;;;10020565;29;20961;-76
2023/05/22 10:36:50;;;;;;;75.47;48.17;;;;;19.20;101123.00;;;;10034341;29;20203;-76
2023/05/22 10:41:52;;;;;;;68.35;43.72;;;;;19.30;101128.00;;;;10018226;29;20223;-76
2023/05/22 10:46:53;;;;;;;65.75;41.88;;;;;19.20;101118.00;;;;10036799;29;20235;-77
2023/05/22 10:51:55;;;;;;;49.65;32.95;;;;;19.40;101113.00;;;;10036078;29;20227;-77
2023/05/22 10:57:13;;;;;;;52.85;34.65;;;;;19.40;101106.00;;;;10034716;29;20222;-75
2023/05/22 11:02:40;;;;;;;57.70;35.17;;;;;19.80;101123.00;;;;10037453;29;20226;-76
2023/05/22 11:07:42;;;;;;;52.33;31.08;;;;;19.80;101124.00;;;;10038221;29;20211;-76
2023/05/22 11:12:44;;;;;;;53.63;32.47;;;;;19.40;101124.00;;;;10019729;29;20210;-76
2023/05/22 11:17:51;;;;;;;61.72;38.47;;;;;19.20;101128.00;;;;10022285;29;21577;-77
2023/05/22 11:22:59;;;;;;;89.95;52.80;;;;;19.40;101121.00;;;;10037050;29;20270;-76
2023/05/22 11:28:04;;;;;;;101.07;55.40;;;;;19.80;101131.00;;;;10020407;29;20834;-77
2023/05/22 11:33:06;;;;;;;91.95;52.97;;;;;19.90;101126.00;;;;10029239;29;20676;-76
2023/05/22 11:38:08;;;;;;;92.97;51.35;;;;;20.30;101125.00;;;;10016723;29;20204;-76
2023/05/22 11:43:10;;;;;;;81.95;48.33;;;;;20.50;101121.00;;;;10019162;29;20238;-77
2023/05/22 11:48:11;;;;;;;71.80;48.38;;;;;21.10;101120.00;;;;10020382;29;20207;-77
2023/05/22 11:53:17;;;;;;;68.40;43.53;;;;;21.50;101109.00;;;;10035318;29;20221;-76
2023/05/22 11:58:27;;;;;;;69.07;46.75;;;;;21.10;101110.00;;;;10022226;29;21202;-77
2023/05/22 12:03:31;;;;;;;73.20;46.20;;;;;20.80;101114.00;;;;10003661;29;21290;-76
2023/05/22 12:08:33;;;;;;;71.53;46.97;;;;;20.70;101117.00;;;;10037015;29;21056;-76
2023/05/22 12:13:35;;;;;;;66.82;45.85;;;;;21.20;101115.00;;;;10032379;29;20211;-76
2023/05/22 12:18:36;;;;;;;71.40;46.88;;;;;21.80;101109.00;;;;10032900;29;20216;-76
2023/05/22 12:23:47;;;;;;;75.43;49.08;;;;;22.30;101096.00;;;;10031438;29;20255;-76
2023/05/22 12:28:56;;;;;;;68.75;48.42;;;;;21.90;101093.00;;;;10032864;29;20601;-76
2023/05/22 12:33:58;;;;;;;73.70;45.47;;;;;22.20;101093.00;;;;10015256;29;20450;-76
2023/05/22 12:38:59;;;;;;;59.47;37.50;;;;;22.30;101087.00;;;;10017318;29;20825;-77
2023/05/22 12:44:02;;;;;;;53.53;35.72;;;;;23.60;101078.00;;;;10031712;29;20235;-75
2023/05/22 12:49:03;;;;;;;46.63;35.38;;;;;24.20;101073.00;;;;10016943;29;20261;-76
2023/05/22 12:54:16;;;;;;;50.40;33.67;;;;;23.90;101071.00;;;;11402904;23;20208;31
2023/05/22 13:17:03;;;;;;;41.15;31.65;;;;;25.00;101060.00;;;;3283036;23;20491;-78
2023/05/22 13:39:18;;;;;;;41.22;28.73;;;;;24.30;101064.00;;;;11840408;23;20281;31
2023/05/22 13:49:45;;;;;;;43.65;29.15;;;;;24.10;101071.00;;;;11223313;23;20338;-78
2023/05/22 13:55:18;;;;;;;42.15;29.15;;;;;23.40;101072.00;;;;10983109;23;20321;31
2023/05/22 14:00:20;;;;;;;37.28;28.83;;;;;22.90;101083.00;;;;11303183;23;20204;-78
2023/05/22 14:05:22;;;;;;;41.53;27.58;;;;;23.00;101082.00;;;;11041214;23;20650;-80
2023/05/22 14:10:24;;;;;;;38.03;28.95;;;;;23.00;101083.00;;;;12111238;23;20247;-76
2023/05/22 14:15:25;;;;;;;38.33;27.63;;;;;22.40;101087.00;;;;10186935;28;20240;-76
2023/05/22 14:20:27;;;;;;;49.58;33.47;;;;;22.20;101089.00;;;;10181253;28;20231;-76
2023/05/22 14:25:28;;;;;;;40.10;31.35;;;;;22.40;101087.00;;;;10190767;28;20479;-76
2023/05/22 14:30:29;;;;;;;54.25;36.78;;;;;22.10;101087.00;;;;10195255;28;20264;-76
2023/05/22 14:35:31;;;;;;;50.50;37.03;;;;;21.80;101085.00;;;;10194763;28;20224;-75
2023/05/22 14:40:32;;;;;;;51.70;34.58;;;;;22.30;101094.00;;;;10173969;28;21873;-76
2023/05/22 14:45:34;;;;;;;54.78;37.10;;;;;22.20;101086.00;;;;10193870;28;20599;-75
2023/05/22 14:50:35;;;;;;;53.85;40.13;;;;;22.70;101088.00;;;;10192275;28;20601;-76
2023/05/22 14:55:37;;;;;;;54.65;40.80;;;;;22.80;101105.00;;;;10173150;28;20885;-74
2023/05/22 15:00:41;;;;;;;53.65;41.30;;;;;22.10;101102.00;;;;10171930;28;20235;-75
2023/05/22 15:05:43;;;;;;;58.67;40.47;;;;;21.90;101113.00;;;;10172144;28;20221;-75
2023/05/22 15:10:45;;;;;;;49.38;34.35;;;;;21.70;101115.00;;;;10191240;28;20455;-75
2023/05/22 15:15:46;;;;;;;48.20;30.67;;;;;21.30;101111.00;;;;10191924;28;21245;-75
2023/05/22 15:20:48;;;;;;;47.13;30.33;;;;;21.20;101117.00;;;;10160503;28;20346;-76
2023/05/22 15:25:51;;;;;;;42.95;29.35;;;;;21.50;101110.00;;;;10192125;28;20205;-76
2023/05/22 15:30:52;;;;;;;45.95;28.42;;;;;22.00;101104.00;;;;10191715;28;20220;-75
2023/05/22 15:35:54;;;;;;;44.70;28.77;;;;;21.50;101119.00;;;;10189802;28;20804;-75
2023/05/22 15:40:55;;;;;;;43.53;30.58;;;;;21.40;101123.00;;;;10167844;28;20327;-75
2023/05/22 15:45:57;;;;;;;44.15;27.00;;;;;21.20;101118.00;;;;10193127;28;20216;-77
2023/05/22 15:50:58;;;;;;;45.58;24.17;;;;;20.80;101126.00;;;;10159190;28;20232;-75
2023/05/22 15:55:59;;;;;;;45.45;30.73;;;;;20.40;101138.00;;;;10176622;28;20228;-77
2023/05/22 16:01:01;;;;;;;58.58;35.45;;;;;20.50;101134.00;;;;10192443;28;20256;-77
2023/05/22 16:06:02;;;;;;;57.88;38.53;;;;;20.20;101141.00;;;;10172749;28;20233;-77
2023/05/22 16:11:04;;;;;;;49.53;35.60;;;;;20.10;101140.00;;;;10192112;28;20579;-77
2023/05/22 16:16:05;;;;;;;47.90;28.58;;;;;20.20;101146.00;;;;10157989;28;20604;-76
2023/05/22 16:21:07;;;;;;;42.20;29.30;;;;;20.20;101151.00;;;;10171288;28;21048;-76
2023/05/22 16:26:08;;;;;;;50.03;30.80;;;;;19.90;101150.00;;;;10169675;28;20248;-76
2023/05/22 16:31:11;;;;;;;49.28;31.85;;;;;19.50;101163.00;;;;10191598;28;20220;-76
2023/05/22 16:36:13;;;;;;;50.95;29.42;;;;;19.30;101155.00;;;;10170591;28;20213;-76
2023/05/22 16:41:14;;;;;;;50.30;28.20;;;;;20.20;101162.00;;;;10179321;28;20229;-76
2023/05/22 16:46:16;;;;;;;36.85;25.30;;;;;20.30;101165.00;;;;10171058;28;21539;-76
2023/05/22 16:51:17;;;;;;;46.45;27.83;;;;;19.80;101165.00;;;;10164904;28;20319;-76
2023/05/22 16:56:19;;;;;;;47.78;26.27;;;;;19.70;101162.00;;;;10188854;28;20775;-76
2023/05/22 17:01:21;;;;;;;46.40;27.83;;;;;19.50;101167.00;;;;10179594;28;20228;-76
2023/05/22 17:06:23;;;;;;;39.60;24.27;;;;;19.40;101165.00;;;;10196383;28;20256;-77
2023/05/22 17:11:25;;;;;;;42.03;26.23;;;;;19.50;101176.00;;;;10200649;28;21545;-76
2023/05/22 17:16:26;;;;;;;37.20;25.15;;;;;19.50;101172.00;;;;10183538;28;20300;-77
2023/05/22 17:21:29;;;;;;;49.72;28.10;;;;;19.60;101176.00;;;;10208728;28;20347;-76
2023/05/22 17:26:32;;;;;;;47.72;25.63;;;;;19.60;101178.00;;;;10191109;28;20216;-77
2023/05/22 17:31:33;;;;;;;40.80;25.10;;;;;19.30;101178.00;;;;10169629;28;20249;-77
2023/05/22 17:36:37;;;;;;;42.55;25.63;;;;;18.80;101190.00;;;;10187363;28;20247;-76
2023/05/22 17:41:38;;;;;;;41.17;23.40;;;;;18.40;101201.00;;;;10205856;28;20229;-77
2023/05/22 17:46:39;;;;;;;45.78;25.42;;;;;18.30;101206.00;;;;10188898;28;20225;-77
2023/05/22 17:51:41;;;;;;;40.35;25.58;;;;;18.20;101211.00;;;;10184306;28;20244;-78
2023/05/22 17:56:42;;;;;;;44.63;26.67;;;;;18.20;101205.00;;;;10185157;28;20252;-76
2023/05/22 18:01:43;;;;;;;47.33;26.45;;;;;18.30;101209.00;;;;10139196;28;20626;-77
2023/05/22 18:06:45;;;;;;;41.13;25.02;;;;;18.60;101217.00;;;;10187841;28;20998;-76
2023/05/22 18:11:46;;;;;;;46.85;26.13;;;;;18.60;101218.00;;;;10179957;28;20423;-76
2023/05/22 18:16:48;;;;;;;46.10;25.85;;;;;18.50;101213.00;;;;10157467;28;20914;-76
2023/05/22 18:21:49;;;;;;;41.72;25.58;;;;;18.20;101212.00;;;;10181263;28;21841;-77
2023/05/22 18:26:51;;;;;;;50.65;26.65;;;;;17.90;101223.00;;;;10163514;28;20403;-77
2023/05/22 18:31:52;;;;;;;53.00;27.23;;;;;17.70;101216.00;;;;10163385;28;20217;-76
2023/05/22 18:36:54;;;;;;;49.55;26.50;;;;;17.60;101221.00;;;;10156859;28;20238;-77
2023/05/22 18:41:57;;;;;;;48.22;25.77;;;;;17.50;101234.00;;;;10161331;28;20425;-77
2023/05/22 18:46:58;;;;;;;39.92;23.00;;;;;17.40;101228.00;;;;10190749;28;20292;-77
2023/05/22 18:52:00;;;;;;;47.17;25.10;;;;;17.20;101234.00;;;;10184510;28;20591;-78
2023/05/22 18:57:01;;;;;;;49.10;25.25;;;;;17.10;101238.00;;;;10210207;28;21006;-78
2023/05/22 19:02:03;;;;;;;52.13;25.60;;;;;17.00;101240.00;;;;10185872;28;20248;-77
2023/05/22 19:07:04;;;;;;;54.03;27.08;;;;;16.80;101235.00;;;;10176792;28;20307;-78
2023/05/22 19:12:05;;;;;;;50.38;25.02;;;;;16.60;101239.00;;;;10153549;28;20542;-77
2023/05/22 19:17:07;;;;;;;56.17;28.25;;;;;16.50;101250.00;;;;10191645;28;20452;-77
2023/05/22 19:22:08;;;;;;;57.63;27.40;;;;;16.30;101250.00;;;;10202876;28;20236;-78
2023/05/22 19:27:10;;;;;;;53.88;26.17;;;;;16.10;101263.00;;;;10204439;28;20223;-77
2023/05/22 19:32:12;;;;;;;48.95;26.58;;;;;15.90;101268.00;;;;10178064;28;20221;-77
2023/05/22 19:37:14;;;;;;;50.80;27.35;;;;;15.80;101283.00;;;;10190554;28;21631;-78
2023/05/22 19:42:15;;;;;;;55.60;27.38;;;;;15.70;101275.00;;;;10188893;28;21600;-77
2023/05/22 19:47:17;;;;;;;48.67;26.67;;;;;15.60;101281.00;;;;10165799;28;20287;-77
2023/05/22 19:52:18;;;;;;;54.42;25.95;;;;;15.50;101291.00;;;;10177317;28;20225;-78
2023/05/22 19:57:20;;;;;;;50.75;24.40;;;;;15.40;101299.00;;;;10172389;28;20307;-78
2023/05/22 20:02:21;;;;;;;36.60;20.15;;;;;15.40;101295.00;;;;10202009;28;20233;-78
2023/05/22 20:07:23;;;;;;;36.95;18.20;;;;;15.30;101322.00;;;;10173454;28;20275;-77
2023/05/22 20:12:24;;;;;;;29.13;15.45;;;;;15.20;101314.00;;;;10186543;28;20221;-77
2023/05/22 20:17:26;;;;;;;23.13;14.65;;;;;15.10;101330.00;;;;10203158;28;20411;-77
2023/05/22 20:22:27;;;;;;;27.02;13.57;;;;;15.00;101346.00;;;;10177662;28;20322;-78
2023/05/22 20:27:28;;;;;;;28.42;14.15;;;;;14.90;101345.00;;;;10155228;28;21881;-77
2023/05/22 20:32:31;;;;;;;35.15;15.30;;;;;14.70;101348.00;;;;10113587;28;20299;-76
2023/05/22 20:37:33;;;;;;;33.00;15.90;;;;;14.60;101346.00;;;;10147033;28;20220;-76
2023/05/22 20:42:36;;;;;;;28.23;16.20;;;;;14.40;101349.00;;;;10124585;28;20236;-76
2023/05/22 20:47:39;;;;;;;38.58;17.55;;;;;14.20;101367.00;;;;10129299;28;21887;-76
2023/05/22 20:52:40;;;;;;;41.60;18.20;;;;;14.10;101374.00;;;;10124608;28;20268;-76
2023/05/22 20:57:41;;;;;;;37.27;18.17;;;;;13.90;101370.00;;;;10136317;28;20223;-77
2023/05/22 21:02:43;;;;;;;44.87;19.60;;;;;13.80;101381.00;;;;10136942;28;20231;-78
2023/05/22 21:07:44;;;;;;;42.37;20.37;;;;;13.70;101364.00;;;;10137903;28;20213;-77
2023/05/22 21:12:46;;;;;;;40.63;20.10;;;;;13.70;101378.00;;;;10131303;28;20299;-78
2023/05/22 21:17:48;;;;;;;42.17;21.50;;;;;13.70;101385.00;;;;10154642;28;20217;-77
2023/05/22 21:22:49;;;;;;;46.23;22.27;;;;;13.80;101368.00;;;;10153673;28;20229;-77
2023/05/22 21:27:53;;;;;;;40.87;19.77;;;;;13.70;101373.00;;;;10151024;28;20251;-76
2023/05/22 21:32:54;;;;;;;42.67;21.43;;;;;13.70;101375.00;;;;10152548;28;20341;-76
2023/05/22 21:37:56;;;;;;;35.20;20.70;;;;;13.70;101375.00;;;;10153182;28;20234;-77
2023/05/22 21:42:57;;;;;;;43.73;23.40;;;;;13.70;101378.00;;;;10114790;28;20243;-77
2023/05/22 21:47:59;;;;;;;40.17;21.43;;;;;13.70;101388.00;;;;10151572;28;20221;-76
2023/05/22 21:53:00;;;;;;;45.40;23.63;;;;;13.70;101389.00;;;;10167974;28;20208;-77
2023/05/22 21:58:02;;;;;;;48.63;27.30;;;;;13.70;101396.00;;;;10165179;28;20209;-79
2023/05/22 22:03:03;;;;;;;40.90;24.70;;;;;13.60;101408.00;;;;10182353;28;20219;-78
2023/05/22 22:08:05;;;;;;;46.03;26.80;;;;;13.60;101407.00;;;;10134628;28;20229;-76
2023/05/22 22:13:06;;;;;;;56.40;28.67;;;;;13.60;101410.00;;;;10154513;28;20216;-75
2023/05/22 22:18:08;;;;;;;39.17;23.83;;;;;13.60;101405.00;;;;10142030;28;20221;-76
2023/05/22 22:23:09;;;;;;;48.07;25.87;;;;;13.60;101413.00;;;;10150502;28;20370;-73
2023/05/22 22:28:11;;;;;;;53.63;27.60;;;;;13.50;101428.00;;;;10106460;28;20295;-75
2023/05/22 22:33:12;;;;;;;46.70;24.60;;;;;13.50;101412.00;;;;10145805;28;20219;-76
2023/05/22 22:38:14;;;;;;;48.37;23.50;;;;;13.40;101425.00;;;;10193037;28;20221;-74
2023/05/22 22:43:15;;;;;;;48.40;23.23;;;;;13.20;101434.00;;;;10208123;28;20228;-75
2023/05/22 22:48:21;;;;;;;45.87;23.87;;;;;13.10;101436.00;;;;10184437;28;20234;-75
2023/05/22 22:53:22;;;;;;;46.67;22.63;;;;;13.10;101450.00;;;;10162247;28;20334;-74
2023/05/22 22:58:24;;;;;;;43.17;22.23;;;;;13.00;101452.00;;;;10173378;28;21333;-76
2023/05/22 23:03:26;;;;;;;47.13;26.67;;;;;13.00;101444.00;;;;10177327;28;20316;-74
2023/05/22 23:08:27;;;;;;;62.00;32.17;;;;;13.00;101440.00;;;;10173445;28;20224;-76
2023/05/22 23:13:29;;;;;;;57.57;31.07;;;;;13.00;101444.00;;;;10165189;28;20474;-77
2023/05/22 23:18:30;;;;;;;55.63;30.17;;;;;13.00;101457.00;;;;10187125;28;20231;-77
2023/05/22 23:23:31;;;;;;;65.93;32.13;;;;;13.00;101453.00;;;;10171155;28;22010;-77
2023/05/22 23:28:33;;;;;;;70.50;34.43;;;;;13.00;101441.00;;;;10187807;28;20225;-77
2023/05/22 23:33:34;;;;;;;65.97;32.47;;;;;13.00;101452.00;;;;10189789;28;20902;-77
2023/05/22 23:38:35;;;;;;;72.63;36.60;;;;;13.00;101445.00;;;;10156628;28;20212;-77
2023/05/22 23:43:37;;;;;;;64.10;32.70;;;;;13.00;101447.00;;;;10170411;28;20232;-77
2023/05/22 23:48:40;;;;;;;62.77;35.50;;;;;13.10;101451.00;;;;10173356;28;20315;-77
2023/05/22 23:53:42;;;;;;;72.30;36.33;;;;;13.20;101455.00;;;;10178953;28;20224;-78
2023/05/22 23:58:43;;;;;;;61.43;33.67;;;;;13.20;101453.00;;;;10194021;28;20219;-81
